createdAt,value
2023-05-05T04:42:39.291Z,100449.94
2023-05-05T04:45:07.434Z,100452.29
2023-05-05T04:47:39.125Z,100448.29
2023-05-05T04:50:07.388Z,100449.35
2023-05-05T04:52:34.625Z,100446.59
2023-05-05T04:55:01.639Z,100449.40
2023-05-05T04:57:29.746Z,100451.88
2023-05-05T04:59:56.955Z,100450.52
2023-05-05T05:02:24.155Z,100454.02
2023-05-05T05:04:51.212Z,100452.79
2023-05-05T05:07:18.164Z,100450.86
2023-05-05T05:09:45.072Z,100447.35
2023-05-05T05:12:12.137Z,100445.56
2023-05-05T05:14:39.736Z,100438.39
2023-05-05T05:17:06.908Z,100433.44
2023-05-05T05:19:35.414Z,100433.36
2023-05-05T05:22:02.592Z,100433.45
2023-05-05T05:24:30.811Z,100431.77
2023-05-05T05:26:58.749Z,100428.16
2023-05-05T05:29:27.458Z,100427.16
2023-05-05T05:31:57.091Z,100427.70
2023-05-05T05:34:39.784Z,100427.57
2023-05-05T05:37:17.658Z,100426.65
2023-05-05T05:39:55.126Z,100428.88
2023-05-05T05:42:22.828Z,100427.77
2023-05-05T05:44:49.931Z,100426.15
2023-05-05T05:47:17.914Z,100431.20
2023-05-05T05:49:46.019Z,100430.34
2023-05-05T05:52:13.188Z,100428.24
2023-05-05T05:54:40.521Z,100427.30
2023-05-05T05:57:08.064Z,100424.20
2023-05-05T05:59:36.672Z,100426.02
2023-05-05T06:02:04.632Z,100425.40
2023-05-05T06:04:32.629Z,100424.61
2023-05-05T06:07:01.213Z,100423.15
2023-05-05T06:09:28.589Z,100425.69
2023-05-05T06:11:55.794Z,100424.15
2023-05-05T06:14:23.087Z,100426.52
2023-05-05T06:16:53.306Z,100423.25
2023-05-05T06:19:22.823Z,100422.66
2023-05-05T06:21:50.924Z,100422.09
2023-05-05T06:24:28.666Z,100420.74
2023-05-05T06:27:04.456Z,100417.13
2023-05-05T06:29:50.700Z,100413.89
2023-05-05T06:32:23.605Z,100412.07
2023-05-05T06:35:28.562Z,100407.28
2023-05-05T06:38:26.921Z,100402.77
2023-05-05T06:41:33.714Z,100398.52
2023-05-05T06:44:01.107Z,100398.48
2023-05-05T06:46:28.010Z,100394.05
2023-05-05T06:48:56.336Z,100395.67
2023-05-05T06:51:34.834Z,100398.63
2023-05-05T06:54:02.880Z,100389.34
2023-05-05T06:56:30.973Z,100390.82
2023-05-05T06:58:57.925Z,100390.06
2023-05-05T07:01:25.092Z,100390.23
2023-05-05T07:03:52.449Z,100391.82
2023-05-05T07:06:19.767Z,100387.69
2023-05-05T07:08:49.721Z,100385.61
2023-05-05T07:11:16.863Z,100387.52
2023-05-05T07:13:46.527Z,100383.35
2023-05-05T07:16:13.537Z,100382.10
2023-05-05T07:18:40.630Z,100384.17
2023-05-05T07:21:08.259Z,100382.73
2023-05-05T07:23:37.977Z,100381.27
2023-05-05T07:26:05.138Z,100383.63
2023-05-05T07:28:32.109Z,100377.55
2023-05-05T07:30:59.377Z,100374.89
2023-05-05T07:33:26.400Z,100373.61
2023-05-05T07:35:53.540Z,100371.66
2023-05-05T07:38:20.647Z,100372.46
2023-05-05T07:40:49.413Z,100373.56
2023-05-05T07:43:17.517Z,100369.91
2023-05-05T07:45:44.424Z,100367.36
2023-05-05T07:48:11.808Z,100368.71
2023-05-05T07:50:41.058Z,100367.40
2023-05-05T07:53:14.478Z,100367.19
2023-05-05T07:55:42.445Z,100365.34
2023-05-05T07:58:11.274Z,100370.05
2023-05-05T08:00:39.882Z,100368.77
2023-05-05T08:03:13.111Z,100367.83
2023-05-05T08:05:48.229Z,100367.61
2023-05-05T08:08:16.517Z,100366.88
2023-05-05T08:10:43.488Z,100362.04
2023-05-05T08:13:16.512Z,100356.62
2023-05-05T08:15:45.202Z,100355.77
2023-05-05T08:18:12.227Z,100357.63
2023-05-05T08:20:39.159Z,100358.59
2023-05-05T08:23:06.394Z,100353.29
2023-05-05T08:25:34.599Z,100355.08
2023-05-05T08:28:01.551Z,100353.10
2023-05-05T08:30:28.640Z,100356.53
2023-05-05T08:32:55.642Z,100350.84
2023-05-05T08:35:22.761Z,100353.48
2023-05-05T08:37:50.758Z,100353.30
2023-05-05T08:40:17.682Z,100353.96
2023-05-05T08:42:55.559Z,100358.35
2023-05-05T08:45:25.156Z,100358.84
2023-05-05T08:47:52.419Z,100355.11
2023-05-05T08:50:19.783Z,100357.88
2023-05-05T08:52:48.093Z,100356.27
2023-05-05T08:55:26.674Z,100353.31
2023-05-05T08:57:57.823Z,100354.30
2023-05-05T09:00:30.114Z,100355.55
2023-05-05T09:02:58.400Z,100358.92
2023-05-05T09:05:26.501Z,100358.53
2023-05-05T09:07:56.165Z,100355.84
2023-05-05T09:10:23.245Z,100352.09
2023-05-05T09:12:52.153Z,100350.40
2023-05-05T09:15:22.940Z,100347.01
2023-05-05T09:17:57.066Z,100348.70
2023-05-05T09:20:34.574Z,100344.98
2023-05-05T09:23:20.543Z,100348.45
2023-05-05T09:26:06.509Z,100346.27
2023-05-05T09:28:33.619Z,100343.40
2023-05-05T09:31:14.048Z,100339.52
2023-05-05T09:33:41.294Z,100340.92
2023-05-05T09:36:08.310Z,100339.26
2023-05-05T09:38:37.060Z,100335.34
2023-05-05T09:41:05.539Z,100336.27
2023-05-05T09:43:59.343Z,100333.21
2023-05-05T09:46:54.394Z,100339.81
2023-05-05T09:49:26.995Z,100338.32
2023-05-05T09:51:55.767Z,100337.09
2023-05-05T09:54:41.513Z,100333.70
2023-05-05T09:57:08.820Z,100331.39
2023-05-05T09:59:42.296Z,100333.02
2023-05-05T10:02:19.279Z,100328.77
2023-05-05T10:04:47.957Z,100324.50
2023-05-05T10:07:31.946Z,100325.73
2023-05-05T10:10:05.345Z,100327.42
2023-05-05T10:12:32.782Z,100325.52
2023-05-05T10:15:01.281Z,100323.91
2023-05-05T10:17:31.088Z,100317.41
2023-05-05T10:19:59.886Z,100317.79
2023-05-05T10:22:27.647Z,100324.13
2023-05-05T10:24:58.052Z,100319.41
2023-05-05T10:27:25.018Z,100318.27
2023-05-05T10:30:04.991Z,100316.91
2023-05-05T10:33:05.589Z,100314.65
2023-05-05T10:35:36.866Z,100311.67
2023-05-05T10:38:03.886Z,100309.53
2023-05-05T10:40:30.859Z,100316.80
2023-05-05T10:42:57.786Z,100306.56
2023-05-05T10:45:26.826Z,100304.04
2023-05-05T10:47:54.090Z,100301.52
2023-05-05T10:50:24.059Z,100293.25
2023-05-05T10:53:09.709Z,100295.16
2023-05-05T10:55:51.958Z,100297.98
2023-05-05T10:58:46.869Z,100289.80
2023-05-05T11:01:14.706Z,100296.42
2023-05-05T11:03:41.684Z,100290.47
2023-05-05T11:06:09.102Z,100284.91
2023-05-05T11:08:45.296Z,100287.99
2023-05-05T11:11:12.837Z,100284.24
2023-05-05T11:13:40.163Z,100280.45
2023-05-05T11:16:43.008Z,100281.41
2023-05-05T11:19:29.776Z,100282.35
2023-05-05T11:22:00.180Z,100278.80
2023-05-05T11:24:29.056Z,100276.63
2023-05-05T11:26:56.092Z,100276.27
2023-05-05T11:29:22.975Z,100273.34
2023-05-05T11:32:15.776Z,100273.13
2023-05-05T11:34:49.127Z,100273.44
2023-05-05T11:37:18.846Z,100274.48
2023-05-05T11:40:04.629Z,100275.18
2023-05-05T11:42:31.666Z,100270.21
2023-05-05T11:44:58.612Z,100266.31
2023-05-05T11:47:26.711Z,100269.59
2023-05-05T11:49:53.695Z,100266.96
2023-05-05T11:52:20.661Z,100263.31
2023-05-05T11:54:49.019Z,100264.66
2023-05-05T11:57:17.740Z,100263.69
